Time;durP1;ratioP1;P1;durP2;ratioP2;P2;SDS_P1;SDS_P2;PMS_P1;PMS_P2;Temp;Humidity;BMP_temperature;BMP_pressure;BME280_temperature;BME280_humidity;BME280_pressure;Samples;Min_cycle;Max_cycle;Signal;HPM_P1;HPM_P2
2023/03/10 07:20:29;;;;;;;1.52;0.60;;;;;;;8.66;100.00;96667.53;5127307;27;20435;-79
2023/03/10 07:22:56;;;;;;;1.55;0.50;;;;;;;8.48;100.00;96644.09;5126346;28;20055;-79
2023/03/10 07:25:23;;;;;;;0.52;0.52;;;;;;;8.49;100.00;96662.00;5128388;27;20047;-80
2023/03/10 07:27:50;;;;;;;4.28;0.50;;;;;;;8.56;100.00;96664.56;5127302;27;20047;-79
2023/03/10 07:30:17;;;;;;;0.57;0.50;;;;;;;8.46;100.00;96657.03;5128718;27;20051;-79
2023/03/10 07:32:44;;;;;;;2.55;0.85;;;;;;;8.25;100.00;96635.88;5118297;27;20047;-79
2023/03/10 07:35:10;;;;;;;3.05;0.50;;;;;;;8.25;100.00;96644.00;5128780;27;20043;-80
2023/03/10 07:37:39;;;;;;;0.57;0.55;;;;;;;8.23;100.00;96636.09;5123885;27;20047;-79
2023/03/10 07:40:08;;;;;;;0.83;0.50;;;;;;;8.41;100.00;96672.28;5122864;27;20059;-79
2023/03/10 07:42:34;;;;;;;6.22;0.30;;;;;;;8.50;100.00;96688.00;5122332;27;20047;-80
2023/03/10 07:45:01;;;;;;;0.30;0.30;;;;;;;8.47;100.00;96695.75;5130136;27;20055;-80
2023/03/10 07:47:28;;;;;;;0.93;0.50;;;;;;;8.50;100.00;96692.59;5145264;27;20050;-80
2023/03/10 07:49:54;;;;;;;4.97;0.63;;;;;;;8.48;100.00;96678.47;5141648;27;20043;-80
2023/03/10 07:52:21;;;;;;;0.55;0.25;;;;;;;8.44;100.00;96659.13;5135990;27;20047;-80
2023/03/10 07:54:49;;;;;;;0.75;0.55;;;;;;;8.66;100.00;96691.09;5141692;27;20111;-80
2023/03/10 07:57:16;;;;;;;2.15;0.43;;;;;;;8.66;100.00;96662.13;5131468;27;20054;-79
2023/03/10 07:59:43;;;;;;;0.85;0.40;;;;;;;8.73;100.00;96670.16;5126312;27;20047;-79
2023/03/10 08:02:11;;;;;;;0.57;0.47;;;;;;;8.77;100.00;96679.44;5122034;27;20054;-80
2023/03/10 08:04:38;;;;;;;0.30;0.30;;;;;;;8.76;100.00;96652.59;5127393;27;20062;-80
2023/03/10 08:07:05;;;;;;;0.38;0.32;;;;;;;8.97;100.00;96687.25;5128516;27;20050;-80
2023/03/10 08:09:31;;;;;;;2.05;0.70;;;;;;;8.88;100.00;96671.56;5126299;27;20055;-80
2023/03/10 08:12:00;;;;;;;0.40;0.40;;;;;;;8.77;100.00;96671.31;5128053;27;20043;-79
2023/03/10 08:14:29;;;;;;;0.85;0.47;;;;;;;8.63;100.00;96643.63;5126170;27;20130;-80
2023/03/10 08:16:56;;;;;;;4.40;1.00;;;;;;;8.59;100.00;96666.00;5115793;27;20557;-79
2023/03/10 08:19:22;;;;;;;0.45;0.32;;;;;;;8.58;100.00;96661.63;5116865;27;20301;-79
2023/03/10 08:21:49;;;;;;;2.15;1.08;;;;;;;8.55;100.00;96668.34;5125003;27;20047;-79
2023/03/10 08:24:16;;;;;;;0.50;0.50;;;;;;;8.57;100.00;96676.25;5114682;28;20478;-79
2023/03/10 08:26:42;;;;;;;1.30;0.55;;;;;;;8.54;100.00;96687.56;5123606;27;20047;-80
2023/03/10 08:29:10;;;;;;;1.30;0.57;;;;;;;8.43;100.00;96681.00;5126883;27;20049;-79
2023/03/10 08:31:37;;;;;;;0.52;0.47;;;;;;;8.51;100.00;96707.78;5108032;27;20502;-79
2023/03/10 08:34:03;;;;;;;0.85;0.40;;;;;;;8.37;100.00;96687.34;5107314;28;20044;-79
2023/03/10 08:36:31;;;;;;;1.30;0.52;;;;;;;8.46;100.00;96710.34;5109817;28;20217;-80
2023/03/10 08:38:59;;;;;;;1.23;0.80;;;;;;;8.36;100.00;96701.94;5101734;28;20040;-80
2023/03/10 08:41:28;;;;;;;6.93;0.77;;;;;;;8.45;100.00;96719.53;5103747;28;20067;-79
2023/03/10 08:43:57;;;;;;;1.20;0.68;;;;;;;8.33;100.00;96698.63;5112735;28;20052;-80
2023/03/10 08:46:28;;;;;;;1.08;0.52;;;;;;;8.47;100.00;96691.16;5111480;28;20062;-79
2023/03/10 08:48:55;;;;;;;1.92;0.82;;;;;;;8.68;100.00;96708.75;5112942;28;20052;-79
2023/03/10 08:51:23;;;;;;;3.30;1.10;;;;;;;8.78;100.00;96726.34;5102216;28;20679;-79
2023/03/10 08:53:50;;;;;;;0.98;0.50;;;;;;;8.85;100.00;96729.72;5102490;28;20374;-80
2023/03/10 08:56:19;;;;;;;1.65;0.60;;;;;;;8.89;100.00;96740.94;5099417;28;20517;-79
2023/03/10 08:58:45;;;;;;;0.80;0.50;;;;;;;8.80;100.00;96751.28;5111084;28;20055;-80
2023/03/10 09:01:13;;;;;;;5.28;0.60;;;;;;;8.73;100.00;96767.66;5110059;28;20413;-80
2023/03/10 09:03:43;;;;;;;1.85;0.73;;;;;;;8.44;100.00;96759.31;5109879;28;20558;-81
2023/03/10 09:06:10;;;;;;;2.67;0.65;;;;;;;8.42;100.00;96757.88;5109129;28;20058;-79
2023/03/10 09:08:38;;;;;;;5.72;1.17;;;;;;;8.37;100.00;96766.69;5101292;28;20407;-79
2023/03/10 09:11:05;;;;;;;1.63;0.50;;;;;;;8.47;100.00;96763.44;5107070;28;20059;-79
2023/03/10 09:13:31;;;;;;;3.90;1.10;;;;;;;8.63;100.00;96762.78;5111605;28;20048;-79
2023/03/10 09:15:58;;;;;;;6.53;0.90;;;;;;;8.63;100.00;96764.69;5105917;28;20039;-79
2023/03/10 09:18:25;;;;;;;1.98;0.55;;;;;;;8.83;100.00;96765.19;5111641;28;20106;-80
2023/03/10 09:20:53;;;;;;;1.25;0.47;;;;;;;8.68;100.00;96752.09;5113361;28;20127;-80
2023/03/10 09:23:20;;;;;;;3.05;0.68;;;;;;;8.82;100.00;96746.47;5107445;28;20044;-80
2023/03/10 09:25:46;;;;;;;2.80;0.65;;;;;;;9.06;100.00;96746.50;5109478;28;20410;-80
2023/03/10 09:28:13;;;;;;;2.60;0.60;;;;;;;9.09;100.00;96740.59;5111937;28;20499;-80
2023/03/10 09:30:41;;;;;;;2.70;0.80;;;;;;;9.13;100.00;96755.34;5113078;28;20043;-80
2023/03/10 09:33:15;;;;;;;6.60;1.67;;;;;;;8.99;100.00;96741.19;5111628;28;20055;-80
2023/03/10 09:35:42;;;;;;;6.40;1.65;;;;;;;9.17;100.00;96745.69;5111665;28;20499;-80
2023/03/10 09:38:10;;;;;;;3.78;1.80;;;;;;;9.27;100.00;96740.50;5104948;28;20499;-80
2023/03/10 09:40:39;;;;;;;6.82;1.63;;;;;;;9.34;100.00;96740.38;5101989;28;20048;-80
2023/03/10 09:43:07;;;;;;;4.65;1.83;;;;;;;9.21;100.00;96730.59;5110304;28;20058;-79
2023/03/10 09:45:43;;;;;;;4.68;1.40;;;;;;;9.12;100.00;96730.13;5104310;28;20050;-80
2023/03/10 09:48:24;;;;;;;2.35;0.80;;;;;;;9.15;100.00;96743.22;5111038;27;20048;-79
2023/03/10 09:50:52;;;;;;;1.90;0.55;;;;;;;9.07;100.00;96746.25;5103391;28;20068;-79
2023/03/10 09:53:48;;;;;;;3.42;1.00;;;;;;;8.70;100.00;96745.63;5109041;28;20081;-79
2023/03/10 09:56:19;;;;;;;2.67;0.70;;;;;;;8.60;100.00;96736.19;5103525;28;20054;-80
2023/03/10 09:58:49;;;;;;;1.40;0.70;;;;;;;8.60;100.00;96746.19;5108002;28;20058;-80
2023/03/10 10:01:18;;;;;;;1.92;0.80;;;;;;;8.57;100.00;96760.19;5111920;28;20052;-80
2023/03/10 10:03:47;;;;;;;1.92;0.40;;;;;;;8.54;100.00;96760.66;5107378;28;20463;-80
2023/03/10 10:06:19;;;;;;;0.80;0.50;;;;;;;8.53;100.00;96756.28;5110730;28;20051;-80
2023/03/10 10:08:48;;;;;;;1.98;0.90;;;;;;;8.53;100.00;96746.28;5108249;28;20304;-79
2023/03/10 10:11:18;;;;;;;2.05;0.60;;;;;;;8.66;100.00;96740.66;5110086;28;20054;-81
2023/03/10 10:13:45;;;;;;;2.20;0.73;;;;;;;8.84;100.00;96750.59;5095589;28;20044;-79
2023/03/10 10:16:22;;;;;;;2.90;0.85;;;;;;;8.95;100.00;96767.94;5099828;28;20052;-79
2023/03/10 10:18:59;;;;;;;1.58;0.73;;;;;;;8.82;100.00;96746.47;5100995;28;20052;-78
2023/03/10 10:21:32;;;;;;;2.90;0.55;;;;;;;8.80;100.00;96752.09;5106655;28;20051;-79
2023/03/10 10:23:59;;;;;;;0.52;0.50;;;;;;;8.89;100.00;96740.94;5100657;28;20048;-79
2023/03/10 10:26:28;;;;;;;2.95;0.82;;;;;;;8.99;100.00;96747.44;5105137;28;20075;-79
2023/03/10 10:28:56;;;;;;;1.45;0.95;;;;;;;9.01;100.00;96748.03;5099490;28;20398;-79
2023/03/10 10:31:25;;;;;;;4.53;0.85;;;;;;;9.11;100.00;96746.59;5108713;28;20054;-81
2023/03/10 10:33:58;;;;;;;5.23;1.43;;;;;;;9.07;100.00;96735.41;5111694;28;20130;-79
2023/03/10 10:36:26;;;;;;;1.30;0.85;;;;;;;9.17;100.00;96740.28;5102739;28;20093;-80
2023/03/10 10:38:54;;;;;;;3.30;0.90;;;;;;;9.27;100.00;96736.97;5102888;28;20505;-80
2023/03/10 10:41:24;;;;;;;1.73;0.90;;;;;;;9.23;100.00;96735.78;5095794;28;20044;-79
2023/03/10 10:43:52;;;;;;;;;;;;;;;9.18;100.00;96752.75;5096151;28;20058;-79
2023/03/10 10:46:25;;;;;;;4.53;0.80;;;;;;;8.99;100.00;96739.31;5103080;28;19920;-80
2023/03/10 10:49:03;;;;;;;1.13;0.57;;;;;;;9.07;100.00;96756.28;5104218;28;20052;-79
2023/03/10 10:51:33;;;;;;;1.20;0.60;;;;;;;9.00;100.00;96761.81;5103659;28;20327;-80
2023/03/10 10:54:03;;;;;;;5.90;1.80;;;;;;;8.84;100.00;96747.88;5115027;27;20035;-80
2023/03/10 10:56:30;;;;;;;2.15;0.98;;;;;;;8.88;100.00;96769.91;5102637;28;20405;-80
2023/03/10 10:59:06;;;;;;;1.92;0.80;;;;;;;8.80;100.00;96751.28;5103294;28;20055;-80
2023/03/10 11:01:51;;;;;;;1.95;0.70;;;;;;;8.67;100.00;96755.88;5107401;28;20467;-81
2023/03/10 11:04:21;;;;;;;1.90;0.70;;;;;;;8.43;100.00;96752.22;5102511;28;20058;-81
2023/03/10 11:06:49;;;;;;;4.10;1.60;;;;;;;8.47;100.00;96753.44;5103746;28;20044;-81
2023/03/10 11:09:18;;;;;;;9.23;3.17;;;;;;;8.64;100.00;96769.03;5111476;28;20526;-81
2023/03/10 11:11:54;;;;;;;6.78;2.75;;;;;;;8.64;100.00;96764.47;5107093;27;20391;-81
2023/03/10 11:14:34;;;;;;;7.10;2.08;;;;;;;8.58;100.00;96741.00;5110526;27;20495;-81
2023/03/10 11:17:05;;;;;;;3.72;1.40;;;;;;;8.57;100.00;96738.53;5108171;28;20047;-81
2023/03/10 11:19:44;;;;;;;1.48;0.65;;;;;;;8.70;100.00;96759.16;5104567;28;20143;-81
2023/03/10 11:22:22;;;;;;;2.70;1.00;;;;;;;8.81;100.00;96756.47;5093438;28;20048;-81
2023/03/10 11:24:58;;;;;;;4.75;0.70;;;;;;;8.79;100.00;96755.06;5100439;28;20057;-81
2023/03/10 11:27:37;;;;;;;4.63;1.05;;;;;;;8.94;100.00;96762.75;5092306;28;20044;-80
2023/03/10 11:30:12;;;;;;;2.97;0.95;;;;;;;9.07;100.00;96767.13;5091122;28;20056;-80
2023/03/10 11:33:00;;;;;;;6.60;0.82;;;;;;;9.07;100.00;96743.56;5106929;28;20413;-80
2023/03/10 11:35:32;;;;;;;2.42;0.50;;;;;;;9.17;100.00;96751.13;5093105;28;20043;-80
2023/03/10 11:38:14;;;;;;;3.63;0.68;;;;;;;9.35;100.00;96767.25;5099571;28;20487;-81
2023/03/10 11:40:46;;;;;;;3.92;0.90;;;;;;;9.31;100.00;96740.84;5100460;28;20059;-80
2023/03/10 11:43:22;;;;;;;3.00;0.88;;;;;;;9.37;100.00;96735.31;5104587;28;20052;-80
2023/03/10 11:45:56;;;;;;;1.15;0.55;;;;;;;9.44;100.00;96743.34;5104417;28;20048;-80
2023/03/10 11:48:35;;;;;;;2.85;0.57;;;;;;;9.61;100.00;96740.72;5106711;28;20138;-80
2023/03/10 11:51:03;;;;;;;2.08;0.60;;;;;;;9.60;100.00;96740.94;5100886;28;20088;-80
2023/03/10 11:53:37;;;;;;;4.28;0.88;;;;;;;9.61;100.00;96745.31;5101914;28;20158;-80
2023/03/10 11:56:13;;;;;;;0.40;0.40;;;;;;;9.57;100.00;96744.94;5100649;28;20058;-80
2023/03/10 11:58:44;;;;;;;2.58;0.70;;;;;;;9.53;100.00;96744.63;5099098;28;20139;-80
2023/03/10 12:01:17;;;;;;;1.08;0.50;;;;;;;9.38;100.00;96734.25;5105550;28;20048;-81
2023/03/10 12:03:52;;;;;;;1.73;0.45;;;;;;;9.19;100.00;96725.41;5105357;28;20054;-80
2023/03/10 12:06:23;;;;;;;3.20;0.77;;;;;;;9.03;100.00;96723.41;5098261;28;20079;-80
2023/03/10 12:08:55;;;;;;;2.90;1.05;;;;;;;9.08;100.00;96741.66;5110972;28;20055;-80
2023/03/10 12:11:25;;;;;;;0.40;0.35;;;;;;;8.88;100.00;96729.25;5112461;28;20501;-79
2023/03/10 12:13:58;;;;;;;1.05;0.50;;;;;;;8.92;100.00;96729.66;5109798;28;20058;-80
2023/03/10 12:16:28;;;;;;;2.00;0.68;;;;;;;8.96;100.00;96723.53;5098487;28;20071;-79
2023/03/10 12:18:55;;;;;;;0.50;0.30;;;;;;;9.07;100.00;96742.75;5113560;28;20047;-79
2023/03/10 12:21:24;;;;;;;3.40;0.55;;;;;;;9.13;100.00;96741.78;5109793;28;20051;-80
2023/03/10 12:23:55;;;;;;;1.67;0.50;;;;;;;9.02;100.00;96725.28;5095950;28;20116;-78
2023/03/10 12:27:01;;;;;;;1.75;0.70;;;;;;;9.29;100.00;96738.38;5099332;28;20399;-79
2023/03/10 12:29:34;;;;;;;1.90;0.52;;;;;;;9.16;100.00;96715.03;5105762;28;20040;-79
2023/03/10 12:32:03;;;;;;;1.52;0.60;;;;;;;9.19;100.00;96719.97;5103775;28;20100;-79
2023/03/10 12:34:32;;;;;;;2.57;0.43;;;;;;;9.21;100.00;96739.56;5115447;28;20142;-79
2023/03/10 12:37:08;;;;;;;0.30;0.30;;;;;;;9.14;100.00;96749.69;5094502;28;20048;-80
2023/03/10 12:39:41;;;;;;;2.75;0.32;;;;;;;9.04;100.00;96747.56;5106622;28;20130;-80
2023/03/10 12:42:29;;;;;;;2.65;0.90;;;;;;;9.02;100.00;96738.03;5111696;27;20071;-79
2023/03/10 12:45:20;;;;;;;0.98;0.43;;;;;;;9.15;100.00;96729.66;5115811;28;20066;-79
2023/03/10 12:47:56;;;;;;;1.15;0.40;;;;;;;9.07;100.00;96721.06;5109609;27;20130;-79
2023/03/10 12:50:41;;;;;;;1.80;0.63;;;;;;;9.08;100.00;96714.56;5113814;28;20051;-79
2023/03/10 12:53:25;;;;;;;1.55;0.80;;;;;;;9.08;100.00;96733.53;5107880;28;20057;-79
2023/03/10 12:56:19;;;;;;;3.08;0.75;;;;;;;9.13;100.00;96747.22;5110016;28;20050;-79
2023/03/10 12:58:51;;;;;;;4.43;1.17;;;;;;;9.05;100.00;96745.69;5089583;28;20051;-79
2023/03/10 13:01:22;;;;;;;2.08;0.60;;;;;;;9.08;100.00;96734.38;5098691;28;20360;-79
2023/03/10 13:03:52;;;;;;;2.45;0.73;;;;;;;9.04;100.00;96723.16;5094349;28;20048;-79
2023/03/10 13:06:22;;;;;;;1.95;0.50;;;;;;;9.08;100.00;96731.66;5097062;28;20054;-79
2023/03/10 13:08:52;;;;;;;8.88;0.70;;;;;;;9.03;100.00;96723.41;5112537;28;20053;-79
2023/03/10 13:11:30;;;;;;;2.08;0.60;;;;;;;8.86;100.00;96712.44;5108099;28;20044;-79
2023/03/10 13:14:00;;;;;;;2.63;0.60;;;;;;;8.92;100.00;96730.47;5094413;28;20050;-79
2023/03/10 13:16:26;;;;;;;1.98;0.68;;;;;;;8.86;100.00;96725.97;5101102;28;20414;-79
2023/03/10 13:18:55;;;;;;;1.20;0.40;;;;;;;8.85;100.00;96733.28;5114406;28;20051;-79
2023/03/10 13:21:26;;;;;;;1.58;0.40;;;;;;;8.79;100.00;96722.53;5104068;28;20130;-79
2023/03/10 13:23:55;;;;;;;0.55;0.40;;;;;;;8.92;100.00;96756.75;5114791;28;20122;-79
2023/03/10 13:26:23;;;;;;;0.95;0.50;;;;;;;8.79;100.00;96739.66;5107241;28;20499;-79
2023/03/10 13:28:54;;;;;;;6.60;2.75;;;;;;;8.92;100.00;96762.97;5115093;28;20048;-79
2023/03/10 13:31:23;;;;;;;0.73;0.30;;;;;;;9.04;100.00;96761.09;5108125;28;20475;-79
2023/03/10 13:33:52;;;;;;;0.70;0.40;;;;;;;8.90;100.00;96759.69;5111700;28;20494;-79
2023/03/10 13:36:30;;;;;;;0.20;0.20;;;;;;;8.85;100.00;96776.66;5100524;28;20048;-79
2023/03/10 13:38:57;;;;;;;0.32;0.32;;;;;;;8.68;100.00;96753.97;5115190;28;20048;-79
2023/03/10 13:41:24;;;;;;;0.80;0.35;;;;;;;8.62;100.00;96779.28;5107719;28;20044;-79
2023/03/10 13:43:53;;;;;;;2.92;0.30;;;;;;;8.52;100.00;96782.56;5096574;28;20063;-79
2023/03/10 13:46:24;;;;;;;0.98;0.50;;;;;;;8.48;100.00;96795.72;5110129;27;20051;-80
2023/03/10 13:48:51;;;;;;;0.82;0.40;;;;;;;8.22;100.00;96782.50;5111364;28;20414;-80
2023/03/10 13:51:21;;;;;;;0.40;0.40;;;;;;;8.23;100.00;96779.56;5105517;28;20051;-80
2023/03/10 13:53:52;;;;;;;0.30;0.30;;;;;;;8.24;100.00;96789.34;5099941;28;20044;-80
2023/03/10 13:56:21;;;;;;;0.85;0.50;;;;;;;8.13;100.00;96765.78;5094778;28;20058;-80
2023/03/10 13:58:50;;;;;;;0.50;0.50;;;;;;;8.27;100.00;96783.47;5114249;28;20066;-80
2023/03/10 14:01:20;;;;;;;2.63;0.70;;;;;;;8.34;100.00;96788.81;5104031;28;20048;-80
2023/03/10 14:03:53;;;;;;;1.20;0.70;;;;;;;8.29;100.00;96780.53;5107395;28;20051;-80
2023/03/10 14:06:21;;;;;;;1.02;0.73;;;;;;;8.30;100.00;96774.06;5107025;28;20445;-80
2023/03/10 14:08:50;;;;;;;1.73;0.60;;;;;;;8.14;100.00;96779.06;5093914;28;20056;-80
2023/03/10 14:11:41;;;;;;;0.40;0.40;;;;;;;7.92;100.00;96748.94;5094029;28;20052;-80
2023/03/10 14:14:10;;;;;;;0.50;0.50;;;;;;;8.02;100.00;96778.16;5090738;28;20131;-80
2023/03/10 14:16:48;;;;;;;4.22;1.05;;;;;;;8.03;100.00;96782.53;5095315;28;20044;-79
2023/03/10 14:19:37;;;;;;;0.95;0.55;;;;;;;8.25;100.00;96795.56;5113742;27;20055;-79
2023/03/10 14:22:03;;;;;;;0.65;0.63;;;;;;;8.22;100.00;96802.28;5108148;28;20123;-79
2023/03/10 14:24:31;;;;;;;0.55;0.45;;;;;;;8.25;100.00;96828.06;5110446;28;20046;-80
2023/03/10 14:26:59;;;;;;;0.50;0.50;;;;;;;8.04;100.00;96822.06;5093169;28;20044;-79
2023/03/10 14:29:27;;;;;;;0.60;0.60;;;;;;;7.94;100.00;96878.59;5092864;28;20089;-79
2023/03/10 14:31:53;;;;;;;0.20;0.20;;;;;;;7.70;100.00;96891.91;5095349;28;20044;-80
2023/03/10 14:34:20;;;;;;;0.20;0.20;;;;;;;7.57;100.00;96852.31;5113014;28;20049;-80
2023/03/10 14:36:47;;;;;;;0.57;0.57;;;;;;;7.56;100.00;96852.53;5100792;28;20050;-80
2023/03/10 14:39:13;;;;;;;4.30;0.43;;;;;;;7.57;100.00;96876.66;5101389;28;20498;-80
2023/03/10 14:41:41;;;;;;;0.30;0.30;;;;;;;7.58;100.00;96893.69;5093126;28;20055;-80
2023/03/10 14:44:10;;;;;;;0.40;0.40;;;;;;;7.44;100.00;96888.41;5098604;28;20040;-80
2023/03/10 14:46:36;;;;;;;0.50;0.40;;;;;;;7.31;100.00;96863.34;5091719;28;20055;-80
2023/03/10 14:49:04;;;;;;;0.80;0.57;;;;;;;7.39;100.00;96895.50;5098405;28;20491;-81
2023/03/10 14:51:31;;;;;;;0.82;0.45;;;;;;;7.32;100.00;96873.13;5101101;28;20054;-80
2023/03/10 14:53:57;;;;;;;0.40;0.40;;;;;;;7.37;100.00;96906.53;5099144;28;20039;-79
2023/03/10 14:56:24;;;;;;;0.65;0.57;;;;;;;7.44;100.00;96910.03;5102501;28;20092;-81
2023/03/10 14:58:55;;;;;;;0.47;0.47;;;;;;;7.34;100.00;96892.66;5097251;28;20134;-81
2023/03/10 15:01:22;;;;;;;0.70;0.40;;;;;;;7.34;100.00;96911.56;5098242;28;20040;-80
2023/03/10 15:03:48;;;;;;;0.30;0.30;;;;;;;7.37;100.00;96919.22;5101770;28;20049;-80
2023/03/10 15:06:18;;;;;;;0.40;0.40;;;;;;;7.20;100.00;96906.25;5109434;28;20055;-80
2023/03/10 15:08:44;;;;;;;0.50;0.50;;;;;;;7.30;100.00;96905.78;5101053;28;20064;-80
2023/03/10 15:11:11;;;;;;;2.15;0.70;;;;;;;7.30;100.00;96907.63;5102287;28;20060;-79
2023/03/10 15:13:39;;;;;;;2.50;0.77;;;;;;;7.36;100.00;96922.97;5092326;28;20055;-79
2023/03/10 15:16:10;;;;;;;1.35;0.75;;;;;;;7.23;100.00;96930.13;5092957;28;20055;-79
2023/03/10 15:18:36;;;;;;;0.50;0.50;;;;;;;7.18;100.00;96935.38;5095569;28;20044;-79
2023/03/10 15:21:03;;;;;;;0.47;0.47;;;;;;;7.06;100.00;96929.84;5106040;28;20043;-79
2023/03/10 15:23:30;;;;;;;0.30;0.30;;;;;;;7.07;100.00;96947.69;5102552;28;20068;-78
2023/03/10 15:25:58;;;;;;;3.15;0.60;;;;;;;7.22;100.00;96971.72;5104744;28;20090;-78
2023/03/10 15:28:25;;;;;;;0.55;0.50;;;;;;;7.04;100.00;96964.34;5111727;28;20123;-79
2023/03/10 15:30:53;;;;;;;0.40;0.40;;;;;;;7.00;100.00;96957.72;5112845;28;20055;-79
2023/03/10 15:33:21;;;;;;;0.20;0.20;;;;;;;6.94;100.00;96988.31;5105268;28;20159;-78
2023/03/10 15:35:48;;;;;;;1.13;0.45;;;;;;;6.80;100.00;96994.78;5112668;28;20138;-78
2023/03/10 15:38:15;;;;;;;1.88;0.50;;;;;;;6.82;100.00;97023.25;5110462;28;20047;-79
2023/03/10 15:40:42;;;;;;;1.75;0.55;;;;;;;6.66;100.00;97039.94;5113959;28;20044;-78
2023/03/10 15:43:08;;;;;;;0.50;0.40;;;;;;;6.35;100.00;97030.63;5115347;28;20054;-79
2023/03/10 15:45:40;;;;;;;2.22;0.60;;;;;;;6.26;100.00;97024.63;5117037;27;20394;-80
2023/03/10 15:48:07;;;;;;;1.83;0.50;;;;;;;6.15;100.00;96992.91;5115676;28;20051;-79
2023/03/10 15:50:35;;;;;;;0.68;0.68;;;;;;;6.34;100.00;97016.31;5113862;28;20108;-79
2023/03/10 15:53:03;;;;;;;3.67;1.08;;;;;;;6.29;100.00;97016.13;5115415;28;20043;-79
2023/03/10 15:55:29;;;;;;;4.95;1.10;;;;;;;6.30;100.00;97014.25;5113833;28;20697;-79
2023/03/10 15:57:56;;;;;;;1.65;1.00;;;;;;;6.28;100.00;97002.81;5107813;28;20134;-79
2023/03/10 16:00:24;;;;;;;0.73;0.63;;;;;;;6.47;100.00;97022.72;5096191;28;20044;-79
2023/03/10 16:02:51;;;;;;;10.05;0.82;;;;;;;6.40;100.00;97013.81;5108034;28;20054;-79
2023/03/10 16:05:18;;;;;;;1.23;0.50;;;;;;;6.43;100.00;97013.38;5096164;28;20070;-79
2023/03/10 16:07:46;;;;;;;0.93;0.70;;;;;;;6.37;100.00;97021.28;5114861;28;20505;-79
2023/03/10 16:10:15;;;;;;;0.68;0.68;;;;;;;6.45;100.00;97030.22;5107173;27;20059;-79
2023/03/10 16:12:42;;;;;;;1.45;0.82;;;;;;;6.33;100.00;97057.00;5106027;27;20047;-78
2023/03/10 16:15:09;;;;;;;0.70;0.57;;;;;;;6.14;100.00;97056.84;5109256;28;20047;-79
2023/03/10 16:17:36;;;;;;;0.82;0.68;;;;;;;6.05;100.00;97063.44;5113720;28;20040;-79
2023/03/10 16:20:07;;;;;;;1.58;1.10;;;;;;;5.94;100.00;97047.88;5111296;28;20050;-79
2023/03/10 16:22:39;;;;;;;3.42;1.17;;;;;;;6.26;100.00;97061.56;5115424;28;20625;-79
2023/03/10 16:25:08;;;;;;;1.65;0.80;;;;;;;6.29;100.00;97062.00;5105485;28;20080;-79
2023/03/10 16:27:35;;;;;;;2.05;0.70;;;;;;;6.24;100.00;97042.09;5109259;28;20073;-79
2023/03/10 16:30:02;;;;;;;4.07;1.20;;;;;;;6.26;100.00;97040.81;5115009;28;20751;-79
2023/03/10 16:32:29;;;;;;;5.22;1.00;;;;;;;6.26;100.00;97029.19;5102307;28;20048;-79
2023/03/10 16:34:56;;;;;;;3.00;0.85;;;;;;;6.19;100.00;97050.81;5101004;28;20086;-79
2023/03/10 16:37:25;;;;;;;2.13;0.98;;;;;;;6.16;100.00;97051.22;5110620;28;20057;-79
2023/03/10 16:39:53;;;;;;;3.13;1.00;;;;;;;6.13;100.00;97079.44;5115562;28;20082;-79
2023/03/10 16:42:21;;;;;;;2.28;0.93;;;;;;;6.11;100.00;97075.28;5112763;28;20055;-79
2023/03/10 16:44:48;;;;;;;1.17;0.70;;;;;;;6.22;100.00;97054.94;5103703;28;20054;-79
2023/03/10 16:47:27;;;;;;;4.22;1.17;;;;;;;6.22;100.00;97073.81;5111460;27;20043;-79
2023/03/10 16:49:54;;;;;;;3.00;0.88;;;;;;;6.20;100.00;97087.53;5108811;28;20040;-79
2023/03/10 16:52:21;;;;;;;3.90;0.93;;;;;;;6.14;100.00;97086.50;5115051;28;20077;-80
2023/03/10 16:54:47;;;;;;;4.28;1.00;;;;;;;6.11;100.00;97081.53;5108852;27;20055;-79
2023/03/10 16:57:17;;;;;;;2.20;1.27;;;;;;;6.04;100.00;97080.69;5114484;28;20051;-79
2023/03/10 16:59:45;;;;;;;3.63;1.45;;;;;;;5.96;100.00;97068.22;5104044;28;20070;-80
2023/03/10 17:02:14;;;;;;;6.55;0.80;;;;;;;6.10;100.00;97116.81;5113924;28;20138;-79
2023/03/10 17:04:40;;;;;;;4.28;1.10;;;;;;;5.93;100.00;97090.19;5096683;27;20052;-80
2023/03/10 17:07:07;;;;;;;3.22;1.23;;;;;;;6.00;96.64;97091.03;5115400;28;20048;-79
2023/03/10 17:09:34;;;;;;;4.03;1.45;;;;;;;6.02;97.18;97091.69;5094673;28;20046;-80
2023/03/10 17:12:01;;;;;;;5.68;1.23;;;;;;;5.99;92.50;97113.69;5094884;28;20553;-80
2023/03/10 17:14:29;;;;;;;6.25;1.55;;;;;;;5.87;94.00;97085.59;5109674;28;20039;-80
2023/03/10 17:16:57;;;;;;;3.72;1.15;;;;;;;5.92;92.43;97118.19;5100603;28;20063;-80
2023/03/10 17:19:28;;;;;;;4.95;1.63;;;;;;;5.77;92.41;97107.59;5102774;28;20062;-79
2023/03/10 17:21:55;;;;;;;3.47;1.38;;;;;;;5.86;91.86;97129.81;5112977;28;20047;-79
2023/03/10 17:24:22;;;;;;;3.80;1.08;;;;;;;5.87;90.11;97138.72;5105942;27;20052;-80
2023/03/10 17:26:48;;;;;;;4.85;0.80;;;;;;;5.66;91.00;97111.72;5096461;28;20040;-80
2023/03/10 17:29:15;;;;;;;3.60;0.85;;;;;;;5.77;91.11;97150.72;5101924;28;20052;-80
2023/03/10 17:31:42;;;;;;;3.03;1.05;;;;;;;5.69;89.72;97107.78;5104939;28;20475;-79
2023/03/10 17:34:13;;;;;;;5.18;1.50;;;;;;;5.76;92.27;97118.59;5112908;28;20043;-79
2023/03/10 17:36:40;;;;;;;0.60;0.60;;;;;;;5.73;91.38;97114.41;5110907;28;20054;-79
2023/03/10 17:39:06;;;;;;;10.95;2.47;;;;;;;5.72;92.42;97109.22;5102930;28;20048;-80
2023/03/10 17:41:34;;;;;;;4.10;0.90;;;;;;;5.71;90.45;97115.69;5113041;28;20046;-79
2023/03/10 17:44:03;;;;;;;4.57;1.30;;;;;;;5.70;90.86;97114.81;5102561;28;20043;-80
2023/03/10 17:46:33;;;;;;;1.30;0.90;;;;;;;5.76;90.75;97137.47;5113163;28;20101;-79
2023/03/10 17:48:59;;;;;;;5.57;1.60;;;;;;;5.86;90.90;97143.28;5094253;28;20051;-80
2023/03/10 17:51:29;;;;;;;3.47;0.98;;;;;;;5.79;91.11;97148.66;5094216;28;20052;-80
2023/03/10 17:53:57;;;;;;;4.93;1.40;;;;;;;5.81;89.63;97132.25;5105896;28;20043;-80
2023/03/10 17:56:24;;;;;;;3.60;1.00;;;;;;;5.89;89.75;97161.75;5113837;28;20047;-80
2023/03/10 17:58:52;;;;;;;3.08;1.27;;;;;;;5.87;89.71;97171.91;5102430;28;20050;-79
2023/03/10 18:01:22;;;;;;;3.42;1.23;;;;;;;5.73;95.66;97171.03;5093672;28;20056;-80
2023/03/10 18:03:49;;;;;;;3.85;1.10;;;;;;;5.46;100.00;97191.69;5103411;28;20050;-80
2023/03/10 18:06:17;;;;;;;1.00;0.57;;;;;;;5.03;100.00;97192.72;5106615;28;20407;-80
2023/03/10 18:08:45;;;;;;;8.98;1.40;;;;;;;4.91;100.00;97197.81;5111436;28;20597;-79
2023/03/10 18:11:12;;;;;;;7.05;1.10;;;;;;;4.97;100.00;97234.72;5109036;28;20059;-80
2023/03/10 18:13:39;;;;;;;2.33;1.20;;;;;;;4.93;100.00;97205.69;5110271;28;20052;-80
2023/03/10 18:16:07;;;;;;;2.53;1.00;;;;;;;5.11;100.00;97213.25;5109793;28;20048;-80
2023/03/10 18:18:34;;;;;;;3.28;0.88;;;;;;;5.13;100.00;97208.50;5101256;28;20439;-79
2023/03/10 18:21:00;;;;;;;5.40;1.20;;;;;;;5.00;100.00;97209.25;5095895;28;20043;-79
2023/03/10 18:23:27;;;;;;;2.53;1.10;;;;;;;5.04;100.00;97196.22;5109963;28;20468;-80
2023/03/10 18:25:55;;;;;;;2.33;1.00;;;;;;;5.04;100.00;97180.06;5105646;28;20046;-80
2023/03/10 18:28:22;;;;;;;4.30;1.30;;;;;;;5.06;100.00;97204.94;5108073;28;20487;-80
2023/03/10 18:30:50;;;;;;;6.25;1.77;;;;;;;5.02;100.00;97201.81;5097345;28;20040;-80
2023/03/10 18:33:19;;;;;;;3.58;1.20;;;;;;;5.06;100.00;97197.69;5105770;28;20047;-80
2023/03/10 18:35:47;;;;;;;3.07;1.57;;;;;;;4.97;100.00;97185.44;5112254;28;20047;-80
2023/03/10 18:38:15;;;;;;;4.05;1.60;;;;;;;4.98;100.00;97179.00;5095937;28;20052;-79
2023/03/10 18:40:42;;;;;;;1.65;1.00;;;;;;;5.07;100.00;97191.28;5112753;27;20163;-80
